Time;durP1;ratioP1;P1;durP2;ratioP2;P2;SDS_P1;SDS_P2;PMS_P1;PMS_P2;Temp;Humidity;BMP_temperature;BMP_pressure;BME280_temperature;BME280_humidity;BME280_pressure;Samples;Min_cycle;Max_cycle;Signal;HPM_P1;HPM_P2
2021/10/02 00:31:52;;;;;;;6.72;2.15;;;12.10;80.90;;;;;;5082231;28;20025;-79
2021/10/02 00:44:53;;;;;;;5.65;2.13;;;12.00;81.10;;;;;;5088534;28;20059;-79
2021/10/02 00:47:21;;;;;;;5.47;2.58;;;12.00;81.10;;;;;;5079935;28;20495;-78
2021/10/02 00:49:50;;;;;;;6.57;2.15;;;12.00;81.10;;;;;;5077305;28;20025;-78
2021/10/02 00:52:18;;;;;;;5.30;2.00;;;11.90;81.20;;;;;;5077194;28;20487;-80
2021/10/02 00:54:46;;;;;;;5.13;2.17;;;11.90;81.30;;;;;;5077379;28;20091;-77
2021/10/02 00:57:12;;;;;;;5.43;2.00;;;11.90;81.20;;;;;;5077344;28;20100;-78
2021/10/02 00:59:40;;;;;;;4.43;1.90;;;11.90;81.30;;;;;;5076249;28;20109;-77
2021/10/02 01:02:20;;;;;;;6.30;2.35;;;11.90;81.30;;;;;;5078584;28;20009;-78
2021/10/02 01:05:02;;;;;;;6.47;2.17;;;11.90;81.40;;;;;;5093551;28;20056;-78
2021/10/02 01:07:46;;;;;;;8.05;2.17;;;11.90;81.40;;;;;;5087406;28;20020;-78
2021/10/02 01:10:18;;;;;;;8.50;2.17;;;11.90;81.50;;;;;;5088857;28;20033;-78
2021/10/02 01:13:08;;;;;;;9.07;2.63;;;11.90;81.50;;;;;;5077210;28;20028;-79
2021/10/02 01:16:11;;;;;;;6.78;2.20;;;11.90;81.60;;;;;;5080188;28;20490;-78
2021/10/02 01:18:53;;;;;;;5.18;2.40;;;11.90;81.40;;;;;;5086809;28;20028;-79
2021/10/02 01:21:38;;;;;;;4.95;2.30;;;11.80;81.20;;;;;;5080517;28;20041;-79
2021/10/02 01:24:32;;;;;;;5.55;2.50;;;11.80;81.20;;;;;;5086386;28;20550;-79
2021/10/02 01:27:30;;;;;;;6.90;2.58;;;11.80;81.20;;;;;;5095081;28;20495;-80
2021/10/02 01:29:59;;;;;;;7.97;2.10;;;11.80;81.50;;;;;;5089908;28;20028;-79
2021/10/02 01:32:34;;;;;;;6.65;2.42;;;11.80;81.50;;;;;;5088813;28;20029;-78
2021/10/02 01:48:39;;;;;;;7.30;3.08;;;11.60;81.90;;;;;;5084183;28;21421;-79
2021/10/02 01:51:06;;;;;;;9.50;3.17;;;11.60;82.00;;;;;;5099558;28;20081;-78
2021/10/02 01:53:34;;;;;;;7.55;2.88;;;11.50;81.80;;;;;;5099858;28;20028;-78
2021/10/02 01:56:07;;;;;;;5.95;2.53;;;11.50;81.70;;;;;;5100357;28;20020;-78
2021/10/02 01:58:35;;;;;;;6.35;2.90;;;11.50;81.70;;;;;;5083247;28;20032;-78
2021/10/02 02:01:03;;;;;;;10.20;2.95;;;11.50;81.80;;;;;;5084567;28;20055;-79
2021/10/02 02:03:33;;;;;;;6.53;3.20;;;11.50;82.00;;;;;;5090275;28;20028;-79
2021/10/02 02:06:01;;;;;;;6.68;3.10;;;11.50;82.30;;;;;;5100378;28;20028;-79
2021/10/02 02:08:28;;;;;;;8.70;3.05;;;11.50;82.40;;;;;;5099915;28;20036;-79
2021/10/02 02:10:56;;;;;;;9.90;3.03;;;11.60;82.80;;;;;;5084511;28;20111;-79
2021/10/02 02:13:24;;;;;;;6.75;3.15;;;11.60;83.40;;;;;;5080956;28;20028;-79
2021/10/02 02:15:56;;;;;;;10.85;2.50;;;11.60;83.10;;;;;;5079943;28;20020;-79
2021/10/02 02:18:24;;;;;;;14.82;2.97;;;11.60;83.40;;;;;;5086170;28;20455;-79
2021/10/02 02:21:09;;;;;;;13.35;3.47;;;11.60;83.90;;;;;;5099984;28;20024;-79
2021/10/02 02:23:36;;;;;;;10.95;3.33;;;11.70;84.70;;;;;;5088622;28;20032;-79
2021/10/02 02:26:04;;;;;;;8.55;2.67;;;11.80;85.60;;;;;;5086004;28;20034;-79
2021/10/02 02:28:34;;;;;;;12.40;3.00;;;11.80;85.40;;;;;;5090512;28;20028;-79
2021/10/02 02:31:00;;;;;;;10.07;3.30;;;11.90;85.70;;;;;;5092093;28;20487;-79
2021/10/02 02:33:26;;;;;;;12.55;3.17;;;11.90;85.70;;;;;;5087364;28;20043;-79
2021/10/02 02:35:53;;;;;;;7.72;2.55;;;12.00;85.50;;;;;;5092880;28;20016;-79
2021/10/02 02:38:20;;;;;;;11.18;2.97;;;12.00;85.00;;;;;;5094562;28;20051;-79
2021/10/02 02:40:47;;;;;;;8.20;2.83;;;12.10;84.60;;;;;;5085128;28;20134;-79
2021/10/02 02:43:14;;;;;;;8.65;2.75;;;12.10;84.80;;;;;;5091197;28;20027;-79
2021/10/02 02:45:43;;;;;;;10.00;3.15;;;12.20;84.60;;;;;;5089543;28;20028;-79
2021/10/02 02:48:19;;;;;;;9.40;2.90;;;12.20;84.30;;;;;;5093231;28;20020;-79
2021/10/02 02:50:54;;;;;;;10.57;3.17;;;12.20;84.40;;;;;;5099407;28;20378;-78
2021/10/02 02:53:59;;;;;;;6.13;2.60;;;12.30;84.60;;;;;;5098465;28;20020;-79
2021/10/02 02:56:54;;;;;;;8.60;2.75;;;12.30;84.40;;;;;;5084919;28;20021;-79
2021/10/02 02:59:33;;;;;;;6.55;2.58;;;12.30;84.20;;;;;;5082379;28;20068;-79
2021/10/02 03:02:01;;;;;;;11.68;3.13;;;12.30;84.10;;;;;;5084955;28;20081;-79
2021/10/02 03:04:33;;;;;;;11.32;3.25;;;12.30;84.70;;;;;;5098205;28;20402;-79
2021/10/02 03:07:01;;;;;;;10.30;3.10;;;12.40;84.40;;;;;;5085139;28;20059;-79
2021/10/02 03:09:32;;;;;;;11.00;2.90;;;12.40;84.80;;;;;;5078521;28;20516;-79
2021/10/02 03:11:59;;;;;;;9.77;3.20;;;12.40;84.80;;;;;;5078667;28;20085;-79
2021/10/02 03:14:28;;;;;;;9.88;2.72;;;12.40;84.90;;;;;;5078338;28;20430;-79
2021/10/02 03:16:55;;;;;;;9.73;3.47;;;12.40;85.40;;;;;;5082689;28;20013;-79
2021/10/02 03:19:22;;;;;;;8.15;3.42;;;12.40;85.10;;;;;;5084031;28;20505;-79
2021/10/02 03:21:50;;;;;;;16.00;3.70;;;12.40;85.20;;;;;;5092223;28;20020;-79
2021/10/02 03:24:18;;;;;;;10.88;2.95;;;12.40;85.30;;;;;;5077974;28;20033;-79
2021/10/02 03:26:45;;;;;;;8.50;2.92;;;12.40;85.70;;;;;;5091787;28;20031;-79
2021/10/02 03:29:13;;;;;;;11.57;3.30;;;12.40;86.10;;;;;;5086621;28;20395;-79
2021/10/02 03:31:40;;;;;;;8.82;2.83;;;12.50;86.10;;;;;;5083544;28;20023;-79
2021/10/02 03:34:06;;;;;;;9.98;2.78;;;12.50;86.00;;;;;;5077596;28;20037;-79
2021/10/02 03:36:32;;;;;;;15.52;3.45;;;12.50;86.10;;;;;;5091310;28;20032;-79
2021/10/02 03:38:58;;;;;;;12.57;2.92;;;12.50;86.30;;;;;;5077887;28;20036;-79
2021/10/02 03:41:24;;;;;;;11.45;3.10;;;12.50;86.60;;;;;;5081722;28;20024;-79
2021/10/02 03:43:50;;;;;;;10.43;2.50;;;12.50;86.50;;;;;;5095057;28;20058;-79
2021/10/02 03:46:15;;;;;;;13.13;2.97;;;12.60;86.80;;;;;;5084565;28;20537;-79
2021/10/02 03:48:41;;;;;;;10.15;2.80;;;12.60;87.00;;;;;;5097490;28;20035;-79
2021/10/02 03:51:07;;;;;;;6.75;2.35;;;12.60;86.90;;;;;;5098128;28;20483;-80
2021/10/02 03:53:33;;;;;;;9.18;2.55;;;12.60;86.60;;;;;;5088445;28;20100;-79
2021/10/02 03:55:59;;;;;;;9.25;2.30;;;12.60;86.70;;;;;;5087824;28;20494;-79
2021/10/02 03:58:28;;;;;;;10.10;2.60;;;12.60;86.40;;;;;;5082975;28;20020;-80
2021/10/02 04:00:53;;;;;;;8.10;2.58;;;12.60;86.40;;;;;;5093341;28;20387;-80
2021/10/02 04:03:19;;;;;;;6.97;2.40;;;12.60;86.40;;;;;;5082548;28;20048;-79
2021/10/02 04:05:45;;;;;;;9.93;2.63;;;12.70;86.30;;;;;;5077528;28;20100;-79
2021/10/02 04:08:11;;;;;;;8.50;2.20;;;12.70;86.30;;;;;;5077543;28;20387;-80
2021/10/02 04:10:37;;;;;;;8.68;2.83;;;12.70;86.00;;;;;;5085200;28;20427;-79
2021/10/02 04:13:03;;;;;;;8.82;3.00;;;12.70;86.00;;;;;;5094198;28;20095;-79
2021/10/02 04:15:30;;;;;;;5.68;2.13;;;12.70;86.00;;;;;;5095954;28;20020;-79
2021/10/02 04:17:56;;;;;;;12.40;2.55;;;12.70;86.30;;;;;;5083427;28;20368;-80
2021/10/02 04:20:22;;;;;;;8.43;2.30;;;12.80;86.40;;;;;;5095271;28;20028;-79
2021/10/02 04:22:48;;;;;;;11.70;2.92;;;12.80;86.30;;;;;;5089276;28;20020;-79
2021/10/02 04:25:14;;;;;;;8.73;1.85;;;12.80;86.10;;;;;;5077388;28;20031;-80
2021/10/02 04:27:39;;;;;;;13.15;3.25;;;12.80;86.40;;;;;;5077469;28;20026;-79
2021/10/02 04:30:05;;;;;;;6.75;2.03;;;12.90;87.20;;;;;;5082210;28;20024;-79
2021/10/02 04:32:31;;;;;;;10.15;2.47;;;12.90;86.70;;;;;;5090133;28;20403;-79
2021/10/02 04:34:57;;;;;;;12.38;2.85;;;12.90;87.60;;;;;;5092324;28;20064;-79
2021/10/02 04:37:23;;;;;;;11.55;2.70;;;12.90;88.00;;;;;;5081407;28;20119;-79
2021/10/02 04:39:48;;;;;;;11.90;2.35;;;12.90;88.10;;;;;;5096885;28;20031;-78
2021/10/02 04:42:14;;;;;;;7.20;2.20;;;12.90;88.40;;;;;;5093875;28;20082;-78
2021/10/02 04:44:40;;;;;;;6.72;2.33;;;12.90;87.80;;;;;;5079795;28;20029;-78
2021/10/02 04:47:06;;;;;;;9.25;2.70;;;12.90;87.70;;;;;;5078959;28;20041;-78
2021/10/02 04:49:32;;;;;;;12.15;2.10;;;12.90;87.80;;;;;;5077185;28;20094;-78
2021/10/02 04:51:57;;;;;;;6.68;2.10;;;12.90;88.00;;;;;;5091576;28;20406;-78
2021/10/02 04:54:23;;;;;;;6.72;2.15;;;13.00;88.40;;;;;;5082075;28;20017;-78
2021/10/02 04:56:49;;;;;;;7.25;2.25;;;13.00;88.30;;;;;;5077180;28;20021;-78
2021/10/02 04:59:15;;;;;;;6.35;2.53;;;13.00;88.50;;;;;;5080068;28;20056;-78
2021/10/02 05:01:41;;;;;;;7.72;2.53;;;13.00;89.00;;;;;;5092397;28;20028;-78
2021/10/02 05:04:07;;;;;;;10.27;2.67;;;13.00;89.00;;;;;;5096640;28;20491;-78
2021/10/02 05:06:32;;;;;;;8.27;2.15;;;13.10;89.70;;;;;;5081686;28;20033;-78
2021/10/02 05:08:58;;;;;;;8.05;2.15;;;13.10;89.50;;;;;;5076993;28;20027;-77
2021/10/02 05:11:24;;;;;;;8.32;1.65;;;13.10;89.60;;;;;;5080455;28;20025;-78
2021/10/02 05:13:50;;;;;;;7.25;1.77;;;13.20;90.20;;;;;;5075966;28;20096;-78
2021/10/02 05:16:16;;;;;;;7.10;1.58;;;13.20;90.10;;;;;;5084339;28;20067;-78
2021/10/02 05:18:42;;;;;;;5.95;1.50;;;13.20;90.10;;;;;;5087416;28;20402;-78
2021/10/02 05:21:08;;;;;;;3.78;1.40;;;13.20;89.90;;;;;;5100912;28;20418;-78
2021/10/02 05:23:34;;;;;;;7.85;1.98;;;13.20;90.00;;;;;;5093771;28;20525;-78
2021/10/02 05:25:59;;;;;;;4.47;1.40;;;13.20;89.60;;;;;;5079358;28;20020;-78
2021/10/02 05:28:25;;;;;;;4.22;1.60;;;13.30;89.60;;;;;;5085030;28;20038;-78
2021/10/02 05:30:52;;;;;;;5.57;1.20;;;13.30;89.30;;;;;;5092120;28;20031;-78
2021/10/02 05:33:18;;;;;;;3.03;1.15;;;13.30;89.70;;;;;;5087688;28;20040;-77
2021/10/02 05:35:45;;;;;;;3.10;0.98;;;13.30;90.00;;;;;;5089292;28;20486;-78
2021/10/02 05:38:11;;;;;;;3.38;1.10;;;13.40;90.00;;;;;;5089967;28;20394;-78
2021/10/02 05:40:37;;;;;;;3.17;0.98;;;13.40;90.10;;;;;;5083004;28;20073;-78
2021/10/02 05:43:03;;;;;;;5.88;0.90;;;13.40;90.20;;;;;;5094686;28;20024;-78
2021/10/02 05:45:30;;;;;;;3.33;1.13;;;13.40;90.10;;;;;;5092504;28;20025;-78
2021/10/02 05:47:56;;;;;;;2.33;0.98;;;13.50;90.10;;;;;;5079997;28;20081;-78
2021/10/02 05:50:23;;;;;;;2.80;1.10;;;13.50;90.50;;;;;;5089718;28;20024;-78
2021/10/02 05:52:49;;;;;;;4.50;1.10;;;13.50;90.20;;;;;;5099993;28;20035;-78
2021/10/02 05:55:15;;;;;;;3.63;0.95;;;13.50;90.20;;;;;;5092581;28;20028;-78
2021/10/02 05:57:41;;;;;;;4.18;1.10;;;13.50;90.20;;;;;;5086680;28;20024;-78
2021/10/02 06:00:08;;;;;;;2.50;0.90;;;13.60;90.10;;;;;;5080986;28;20100;-78
2021/10/02 06:02:35;;;;;;;4.50;0.95;;;13.60;90.10;;;;;;5082125;28;20078;-78
2021/10/02 06:05:00;;;;;;;3.15;1.02;;;13.60;90.20;;;;;;5082031;28;20103;-79
2021/10/02 06:07:26;;;;;;;3.60;1.23;;;13.60;90.20;;;;;;5086935;28;20051;-78
2021/10/02 06:09:52;;;;;;;3.28;1.20;;;13.60;90.60;;;;;;5087836;28;20043;-77
2021/10/02 06:12:21;;;;;;;3.15;1.05;;;13.70;90.30;;;;;;5095150;28;20035;-78
2021/10/02 06:14:46;;;;;;;3.17;1.25;;;13.70;90.40;;;;;;5082173;28;20071;-78
2021/10/02 06:17:12;;;;;;;7.20;1.50;;;13.70;90.10;;;;;;5080909;28;20032;-78
2021/10/02 06:19:38;;;;;;;5.07;1.25;;;13.70;90.40;;;;;;5079457;28;20020;-78
2021/10/02 06:22:04;;;;;;;4.53;1.05;;;13.70;90.20;;;;;;5082565;28;20032;-75
2021/10/02 06:24:30;;;;;;;2.70;1.20;;;13.70;90.40;;;;;;5099588;28;20024;-75
2021/10/02 06:26:56;;;;;;;1.70;0.70;;;13.70;90.60;;;;;;5079084;28;20376;-76
2021/10/02 06:29:23;;;;;;;2.83;0.95;;;13.80;90.60;;;;;;5083475;28;20103;-74
2021/10/02 06:31:49;;;;;;;2.00;0.80;;;13.80;90.60;;;;;;5090652;28;20405;-75
2021/10/02 06:34:15;;;;;;;2.95;0.80;;;13.80;90.50;;;;;;5090949;28;20052;-75
2021/10/02 06:36:44;;;;;;;4.13;1.00;;;13.90;90.70;;;;;;5089548;28;20124;-75
2021/10/02 06:39:11;;;;;;;2.80;0.57;;;13.80;90.80;;;;;;5079149;28;20017;-74
2021/10/02 06:41:37;;;;;;;1.27;0.60;;;13.90;90.70;;;;;;5079201;28;20625;-74
2021/10/02 06:44:05;;;;;;;1.65;0.80;;;13.90;91.00;;;;;;5096383;28;20502;-74
2021/10/02 06:46:31;;;;;;;1.85;0.85;;;13.90;90.90;;;;;;5083786;28;20029;-75
2021/10/02 06:48:57;;;;;;;2.13;0.50;;;13.90;90.90;;;;;;5098284;28;20020;-73
2021/10/02 06:51:23;;;;;;;1.33;0.55;;;13.90;90.90;;;;;;5099352;28;20035;-73
2021/10/02 06:53:48;;;;;;;3.35;0.82;;;13.90;90.70;;;;;;5099041;28;20024;-73
2021/10/02 06:56:14;;;;;;;1.55;0.70;;;14.00;90.70;;;;;;5080718;28;20055;-73
2021/10/02 06:58:40;;;;;;;0.80;0.50;;;14.00;90.70;;;;;;5091872;28;20021;-74
2021/10/02 07:01:06;;;;;;;0.45;0.40;;;14.00;91.00;;;;;;5096799;28;20407;-75
2021/10/02 07:03:32;;;;;;;0.77;0.50;;;14.00;90.90;;;;;;5098749;28;20099;-75
2021/10/02 07:05:57;;;;;;;2.72;0.60;;;14.10;90.90;;;;;;5083902;28;20025;-76
2021/10/02 07:08:23;;;;;;;1.55;0.50;;;14.10;91.10;;;;;;5078794;28;20487;-74
2021/10/02 07:10:49;;;;;;;1.65;0.50;;;14.20;91.10;;;;;;5079142;28;20024;-73
2021/10/02 07:13:15;;;;;;;2.45;0.50;;;14.20;91.10;;;;;;5079151;28;20115;-78
2021/10/02 07:15:40;;;;;;;1.85;0.60;;;14.20;90.90;;;;;;5083164;28;20024;-77
2021/10/02 07:18:06;;;;;;;0.75;0.35;;;14.20;91.10;;;;;;5081098;28;20020;-78
2021/10/02 07:20:32;;;;;;;1.63;0.70;;;14.20;90.90;;;;;;5078195;28;20111;-76
2021/10/02 07:22:58;;;;;;;1.65;0.55;;;14.20;90.90;;;;;;5078542;28;20433;-76
2021/10/02 07:25:25;;;;;;;1.90;0.57;;;14.20;90.70;;;;;;5078527;28;20028;-76
2021/10/02 07:27:51;;;;;;;0.90;0.47;;;14.20;90.70;;;;;;5078389;28;20028;-78
2021/10/02 07:30:17;;;;;;;0.45;0.38;;;14.20;90.60;;;;;;5078170;28;20021;-78
2021/10/02 07:32:43;;;;;;;1.00;0.60;;;14.20;90.60;;;;;;5083182;28;20495;-81
2021/10/02 07:35:10;;;;;;;31.38;22.92;;;14.20;90.70;;;;;;5086817;28;20036;-78
2021/10/02 07:37:37;;;;;;;28.05;18.95;;;14.30;90.60;;;;;;5078425;28;20027;-79
2021/10/02 07:40:05;;;;;;;13.70;8.55;;;14.30;90.70;;;;;;5089356;28;20024;-78
2021/10/02 07:42:34;;;;;;;6.00;2.33;;;14.30;90.60;;;;;;5087766;28;20020;-77
2021/10/02 07:45:10;;;;;;;4.15;1.40;;;14.30;90.80;;;;;;5084029;28;20016;-79
2021/10/02 07:47:40;;;;;;;1.30;0.60;;;14.40;90.60;;;;;;5077668;28;20029;-75
2021/10/02 07:50:10;;;;;;;1.50;0.60;;;14.40;90.90;;;;;;5078121;28;20032;-76
2021/10/02 07:52:38;;;;;;;0.90;0.50;;;14.40;90.70;;;;;;5084293;28;20092;-76
2021/10/02 07:55:09;;;;;;;2.47;0.80;;;14.40;90.60;;;;;;5076132;28;20575;-79
2021/10/02 07:57:38;;;;;;;2.50;0.77;;;14.40;90.50;;;;;;5095640;28;20032;-78
2021/10/02 08:00:10;;;;;;;4.35;1.10;;;14.50;90.50;;;;;;5095691;28;20514;-81
2021/10/02 08:02:36;;;;;;;;;;;14.50;90.70;;;;;;5078007;28;20024;-77
2021/10/02 08:05:02;;;;;;;2.80;1.17;;;14.60;91.20;;;;;;5087231;28;19923;-77
2021/10/02 08:07:31;;;;;;;8.63;1.30;;;14.60;91.50;;;;;;5085648;28;20044;-80
2021/10/02 08:09:57;;;;;;;4.07;1.13;;;14.60;91.40;;;;;;5092380;28;20121;-76
2021/10/02 08:12:24;;;;;;;6.78;2.15;;;14.60;91.80;;;;;;5097821;28;20105;-76
2021/10/02 08:14:53;;;;;;;7.63;2.50;;;14.70;92.10;;;;;;5083913;28;20426;-75
2021/10/02 08:17:25;;;;;;;9.90;2.78;;;14.80;92.30;;;;;;5087937;28;20021;-75
2021/10/02 08:19:55;;;;;;;8.23;2.88;;;14.80;92.30;;;;;;5077831;28;20380;-76
2021/10/02 08:22:23;;;;;;;11.10;2.88;;;14.80;92.50;;;;;;5089179;28;20107;-75
2021/10/02 08:24:51;;;;;;;33.58;15.77;;;14.90;92.50;;;;;;5081092;28;20026;-75
2021/10/02 08:27:21;;;;;;;11.77;5.20;;;14.90;92.70;;;;;;5085672;28;20052;-75
2021/10/02 08:29:49;;;;;;;14.95;3.67;;;15.00;93.10;;;;;;5077681;28;20032;-75
2021/10/02 08:32:16;;;;;;;14.15;3.05;;;15.10;92.80;;;;;;5092513;28;20039;-76
2021/10/02 08:34:42;;;;;;;15.45;3.60;;;15.10;92.90;;;;;;5081431;28;20452;-75
2021/10/02 08:37:08;;;;;;;12.07;3.42;;;15.20;92.90;;;;;;5079399;28;20138;-76
2021/10/02 08:39:34;;;;;;;12.93;3.58;;;15.30;92.80;;;;;;5091083;28;20044;-77
2021/10/02 08:42:01;;;;;;;22.85;9.70;;;15.30;93.10;;;;;;5083893;28;20078;-76
2021/10/02 08:44:28;;;;;;;13.80;4.43;;;15.30;93.10;;;;;;5082697;28;20034;-76
2021/10/02 08:46:56;;;;;;;16.38;4.20;;;15.40;93.00;;;;;;5084786;28;20021;-76
2021/10/02 08:49:31;;;;;;;16.50;3.78;;;15.40;92.80;;;;;;5088774;28;20027;-77
2021/10/02 08:52:03;;;;;;;15.48;3.30;;;15.50;92.90;;;;;;5099804;28;20039;-78
2021/10/02 08:54:32;;;;;;;14.00;3.22;;;15.50;92.70;;;;;;5088799;28;20024;-78
2021/10/02 08:56:59;;;;;;;14.45;3.70;;;15.50;92.70;;;;;;5094632;28;20020;-79
2021/10/02 08:59:25;;;;;;;22.08;4.53;;;15.50;92.70;;;;;;5099343;28;20106;-79
2021/10/02 09:01:50;;;;;;;11.25;3.50;;;15.50;92.80;;;;;;5099999;28;20024;-79
2021/10/02 09:04:17;;;;;;;15.13;3.63;;;15.50;92.70;;;;;;5101218;28;20019;-79
2021/10/02 09:06:43;;;;;;;15.35;3.97;;;15.50;92.80;;;;;;5101388;28;20513;-79
2021/10/02 09:09:09;;;;;;;16.48;3.63;;;15.50;92.90;;;;;;5099831;28;20024;-78
2021/10/02 09:11:36;;;;;;;14.60;3.92;;;15.50;93.00;;;;;;5100362;28;20035;-78
2021/10/02 09:14:02;;;;;;;15.75;4.50;;;15.50;93.00;;;;;;5099666;28;20506;-78
2021/10/02 09:16:28;;;;;;;14.20;3.58;;;15.50;93.10;;;;;;5100085;28;20103;-78
2021/10/02 09:18:56;;;;;;;12.73;3.38;;;15.50;93.10;;;;;;5099947;28;20111;-77
2021/10/02 09:21:22;;;;;;;12.77;3.47;;;15.50;93.20;;;;;;5101085;28;20012;-77
2021/10/02 09:23:49;;;;;;;13.38;4.20;;;15.50;93.20;;;;;;5100841;28;20118;-77
2021/10/02 09:26:17;;;;;;;11.95;3.65;;;15.50;93.30;;;;;;5100766;28;20021;-78
2021/10/02 09:28:50;;;;;;;18.55;3.80;;;15.50;93.30;;;;;;5100907;28;20036;-76
2021/10/02 09:31:17;;;;;;;15.15;3.65;;;15.60;93.30;;;;;;5101086;28;20027;-77
2021/10/02 09:33:47;;;;;;;15.55;4.13;;;15.60;93.50;;;;;;5096039;28;20055;-77
2021/10/02 09:36:20;;;;;;;17.00;4.10;;;15.60;93.70;;;;;;5086527;28;20099;-77
2021/10/02 09:38:51;;;;;;;19.77;4.55;;;15.60;93.70;;;;;;5080214;28;20017;-76
2021/10/02 09:41:18;;;;;;;16.48;4.28;;;15.60;93.60;;;;;;5080665;28;20021;-77
2021/10/02 09:43:49;;;;;;;18.35;3.85;;;15.60;93.60;;;;;;5096588;28;20016;-79
2021/10/02 09:46:15;;;;;;;15.07;4.60;;;15.70;93.80;;;;;;5099567;28;20111;-76
2021/10/02 09:48:51;;;;;;;21.17;4.32;;;15.70;93.60;;;;;;5099162;28;20486;-77
2021/10/02 09:51:17;;;;;;;12.40;3.85;;;15.70;93.50;;;;;;5099383;28;20024;-78
2021/10/02 09:53:44;;;;;;;17.17;3.85;;;15.80;93.60;;;;;;5099445;28;20020;-77
2021/10/02 09:56:12;;;;;;;13.57;4.30;;;15.80;93.40;;;;;;5099804;28;20494;-77
2021/10/02 09:58:38;;;;;;;18.17;4.35;;;15.80;93.50;;;;;;5100528;28;20020;-77
2021/10/02 10:01:08;;;;;;;13.80;3.70;;;15.90;93.30;;;;;;5096863;28;20390;-77
2021/10/02 10:03:43;;;;;;;15.38;4.20;;;16.00;93.40;;;;;;5081546;28;20024;-77
2021/10/02 10:06:22;;;;;;;12.95;4.05;;;16.10;93.30;;;;;;5098629;28;20031;-77
2021/10/02 10:09:21;;;;;;;17.23;4.95;;;16.20;93.30;;;;;;5100129;28;20016;-77
2021/10/02 10:11:49;;;;;;;15.52;4.32;;;16.40;93.20;;;;;;5029799;28;20062;-79
2021/10/02 10:14:22;;;;;;;12.88;4.15;;;16.60;93.00;;;;;;5098833;28;20020;-77
2021/10/02 10:16:49;;;;;;;13.35;3.30;;;16.70;92.60;;;;;;5100001;28;20479;-77
2021/10/02 10:19:19;;;;;;;15.80;3.70;;;16.70;92.20;;;;;;5100056;28;20077;-77
2021/10/02 10:21:45;;;;;;;10.98;3.20;;;16.80;92.10;;;;;;5100084;28;20107;-77
2021/10/02 10:24:20;;;;;;;15.95;3.50;;;16.80;92.00;;;;;;5098608;28;20107;-78
2021/10/02 10:26:47;;;;;;;11.65;3.28;;;16.90;91.90;;;;;;5098684;28;20024;-77
2021/10/02 10:29:13;;;;;;;12.10;3.25;;;16.90;91.90;;;;;;5098626;28;20381;-78
2021/10/02 10:31:38;;;;;;;11.23;3.85;;;17.00;91.70;;;;;;5098164;28;20107;-77
2021/10/02 10:34:05;;;;;;;11.25;3.70;;;17.00;91.60;;;;;;5079216;28;20064;-77
2021/10/02 10:36:32;;;;;;;14.88;3.90;;;17.00;91.60;;;;;;5088938;28;20032;-78
2021/10/02 10:38:57;;;;;;;15.90;3.72;;;17.00;91.50;;;;;;5079391;28;20021;-77
2021/10/02 10:41:26;;;;;;;12.43;3.00;;;17.00;91.40;;;;;;5078274;28;20027;-77
2021/10/02 10:43:52;;;;;;;10.20;3.42;;;16.90;91.30;;;;;;5096754;28;20430;-76
2021/10/02 10:46:22;;;;;;;15.40;3.20;;;17.00;91.20;;;;;;5099538;28;20030;-78
2021/10/02 10:48:49;;;;;;;12.88;3.42;;;16.90;90.90;;;;;;5099407;28;20054;-78
2021/10/02 10:51:19;;;;;;;10.00;2.78;;;16.90;90.70;;;;;;5098086;28;20433;-78
2021/10/02 10:53:50;;;;;;;10.80;3.33;;;16.80;90.70;;;;;;5098979;28;20458;-77
2021/10/02 10:56:35;;;;;;;13.05;2.72;;;16.70;90.90;;;;;;5098012;28;20097;-77
2021/10/02 10:59:01;;;;;;;10.57;2.85;;;16.60;90.80;;;;;;5099587;28;20466;-77
2021/10/02 11:01:39;;;;;;;7.63;2.30;;;16.50;90.50;;;;;;5097523;28;20020;-77
2021/10/02 11:04:07;;;;;;;10.55;3.15;;;16.50;90.50;;;;;;5097972;28;20024;-78
2021/10/02 11:06:53;;;;;;;11.48;2.75;;;16.40;90.30;;;;;;5098990;28;20111;-77
2021/10/02 11:09:41;;;;;;;13.48;3.22;;;16.30;90.40;;;;;;5098946;28;20024;-78
2021/10/02 11:12:17;;;;;;;8.90;3.13;;;16.20;90.50;;;;;;5097885;28;20057;-77
2021/10/02 11:14:54;;;;;;;10.80;3.25;;;16.10;90.60;;;;;;5096413;28;20111;-77
2021/10/02 11:17:33;;;;;;;11.98;3.05;;;16.10;90.80;;;;;;5098830;28;20020;-77
2021/10/02 11:20:22;;;;;;;11.07;3.33;;;16.10;91.10;;;;;;5098838;28;20099;-77
2021/10/02 11:23:30;;;;;;;10.18;3.20;;;16.00;91.00;;;;;;5098558;28;20463;-74
2021/10/02 11:26:22;;;;;;;12.68;3.38;;;16.00;91.30;;;;;;5054271;28;20039;-79
2021/10/02 11:29:09;;;;;;;14.32;4.03;;;15.90;91.60;;;;;;5077920;28;20025;-78
2021/10/02 11:31:35;;;;;;;14.00;3.15;;;15.90;91.80;;;;;;5073661;28;20032;-81
2021/10/02 11:34:02;;;;;;;8.98;3.03;;;15.90;91.80;;;;;;5090903;28;20123;-85
2021/10/02 11:36:31;;;;;;;10.02;2.92;;;15.90;91.90;;;;;;5088440;28;20027;-81
2021/10/02 11:39:11;;;;;;;8.80;2.88;;;15.90;92.20;;;;;;5088470;28;20052;-83
2021/10/02 11:42:06;;;;;;;9.95;3.08;;;15.90;92.00;;;;;;5096279;28;20100;-80
2021/10/02 11:44:32;;;;;;;6.45;2.45;;;15.90;92.20;;;;;;5072792;28;20042;-83
2021/10/02 11:47:26;;;;;;;10.98;2.92;;;15.90;92.40;;;;;;5085369;28;20091;-78
2021/10/02 11:50:07;;;;;;;7.07;2.50;;;16.00;92.60;;;;;;5076390;28;20047;-76
2021/10/02 11:52:54;;;;;;;10.75;2.70;;;16.00;92.90;;;;;;5087064;28;20020;-75
2021/10/02 11:55:36;;;;;;;7.90;2.40;;;16.00;93.00;;;;;;5077839;28;20410;-76
2021/10/02 11:58:08;;;;;;;8.67;2.80;;;16.10;93.40;;;;;;5077733;28;20487;-76
2021/10/02 12:00:49;;;;;;;6.03;2.40;;;16.00;93.40;;;;;;5077684;28;20074;-76
2021/10/02 12:03:36;;;;;;;5.82;2.33;;;16.10;93.50;;;;;;5077351;28;20024;-75
2021/10/02 12:06:04;;;;;;;9.25;2.72;;;16.00;93.60;;;;;;5076203;28;20061;-79
2021/10/02 12:08:31;;;;;;;5.72;2.58;;;16.00;93.70;;;;;;5077491;28;20021;-80
2021/10/02 12:11:00;;;;;;;11.30;3.53;;;16.10;93.70;;;;;;5077914;28;20088;-78
2021/10/02 12:13:35;;;;;;;8.68;2.92;;;16.10;93.80;;;;;;5083598;28;20478;-75
2021/10/02 12:16:11;;;;;;;6.22;2.22;;;16.10;94.10;;;;;;5087429;28;20397;-80
2021/10/02 12:18:45;;;;;;;4.93;2.30;;;16.20;93.90;;;;;;5097205;28;20082;-77
2021/10/02 12:21:13;;;;;;;7.68;2.78;;;16.10;94.00;;;;;;5097662;28;20024;-75
2021/10/02 12:24:16;;;;;;;5.13;2.30;;;16.10;94.00;;;;;;5092657;28;20056;-79
2021/10/02 12:27:00;;;;;;;;;;;16.20;93.90;;;;;;5071794;28;20036;-79
2021/10/02 12:29:36;;;;;;;5.72;2.00;;;16.20;94.20;;;;;;5094752;28;19912;-82
2021/10/02 12:32:07;;;;;;;6.88;1.92;;;16.20;94.10;;;;;;5084316;28;20024;-83
2021/10/02 12:34:45;;;;;;;4.82;2.08;;;16.20;94.20;;;;;;5079318;28;20052;-81
2021/10/02 12:37:24;;;;;;;4.57;1.85;;;16.20;94.00;;;;;;5080750;28;20049;-81
2021/10/02 12:39:54;;;;;;;4.85;1.45;;;16.30;94.30;;;;;;5075897;28;20020;-82
2021/10/02 12:42:39;;;;;;;5.93;1.58;;;16.30;94.30;;;;;;5082598;28;20021;-82
2021/10/02 12:45:15;;;;;;;4.47;1.67;;;16.40;94.90;;;;;;5097652;28;20031;-83
2021/10/02 12:47:47;;;;;;;3.50;1.02;;;16.50;94.80;;;;;;5096874;28;20141;-81
2021/10/02 12:50:16;;;;;;;2.83;1.05;;;16.50;94.90;;;;;;5097033;28;20103;-82
2021/10/02 12:52:43;;;;;;;3.05;1.40;;;16.50;95.00;;;;;;5097378;28;20107;-82
2021/10/02 12:55:12;;;;;;;4.25;1.10;;;16.60;94.90;;;;;;5096664;28;20402;-80
2021/10/02 12:57:39;;;;;;;4.00;1.20;;;16.50;94.80;;;;;;5097414;28;20021;-83
2021/10/02 13:00:12;;;;;;;4.85;1.10;;;16.60;95.10;;;;;;5081666;28;20104;-84
2021/10/02 13:02:42;;;;;;;3.67;1.17;;;16.60;95.10;;;;;;5084463;28;20016;-83
2021/10/02 13:05:09;;;;;;;2.60;1.17;;;16.60;95.30;;;;;;5080793;28;20035;-82
2021/10/02 13:07:40;;;;;;;3.25;1.73;;;16.70;95.30;;;;;;5083769;28;20035;-82
2021/10/02 13:10:13;;;;;;;4.90;2.03;;;16.80;95.20;;;;;;5087856;28;20027;-83
2021/10/02 13:12:45;;;;;;;3.88;1.27;;;16.80;95.00;;;;;;5083375;28;20032;-85
2021/10/02 13:15:32;;;;;;;5.70;1.50;;;16.80;95.00;;;;;;5075785;28;20025;-78
2021/10/02 13:18:07;;;;;;;4.95;1.67;;;16.90;95.00;;;;;;5083742;28;20479;-81
2021/10/02 13:20:42;;;;;;;7.10;2.05;;;16.80;95.10;;;;;;5076090;28;20028;-79
2021/10/02 13:23:22;;;;;;;6.05;2.05;;;16.90;95.10;;;;;;5075715;28;20052;-80
2021/10/02 13:25:57;;;;;;;5.90;1.80;;;16.80;94.90;;;;;;5082253;28;20028;-79
2021/10/02 13:28:33;;;;;;;5.50;2.13;;;16.80;95.00;;;;;;5088019;28;20028;-79
2021/10/02 13:31:07;;;;;;;5.18;1.88;;;16.80;95.00;;;;;;5076727;28;20017;-79
2021/10/02 13:33:41;;;;;;;6.57;1.70;;;16.80;94.90;;;;;;5080058;28;20062;-83
2021/10/02 13:36:07;;;;;;;5.82;1.42;;;16.80;95.00;;;;;;5085810;28;20044;-79
2021/10/02 13:38:38;;;;;;;4.43;1.35;;;16.90;95.00;;;;;;5079541;28;20025;-81
2021/10/02 13:41:13;;;;;;;7.60;1.50;;;16.90;95.10;;;;;;5080730;28;20021;-80
2021/10/02 13:43:58;;;;;;;4.38;1.65;;;16.90;95.10;;;;;;5080620;28;20024;-80
2021/10/02 13:46:34;;;;;;;6.45;1.42;;;16.90;95.10;;;;;;5082799;28;20017;-79
2021/10/02 13:49:02;;;;;;;3.88;1.20;;;16.90;95.10;;;;;;5095545;28;20467;-80
2021/10/02 13:51:28;;;;;;;5.07;1.35;;;16.90;95.10;;;;;;5089137;28;20016;-80
2021/10/02 13:53:56;;;;;;;3.10;1.30;;;17.00;95.10;;;;;;5082272;28;20394;-79